Terminal Aerodrome Forecast
Issued by NWS Dallas/Fort Worth, TX

Home | Current Version | Previous Version | Text Only | Print | Product List | Glossary On
Versions: 1 2 3 4 5 6 7 8 9 10 11 12 13 14 15 16 17 18 19 20 21 22 23 24 25 26
115
FTUS44 KFWD 281720
TAFACT
TAF
KACT 281720Z 2818/2918 20010KT P6SM SCT040 SCT100
     FM281900 18010KT P6SM VCTS BKN050CB BKN120
     FM290000 17009KT P6SM VCSH BKN060 BKN120
     FM290300 18008KT P6SM SCT060 SCT120=

USA.gov is the U.S. government's official web portal to all federal, state and local government web resources and services.